sensor_id;sensor_type;location;lat;lon;timestamp;P1;durP1;ratioP1;P2;durP2;ratioP2
76167;SDS011;64927;48.214;16.378;2023-02-28T00:01:06;18.63;;;10.70;;
76167;SDS011;64927;48.214;16.378;2023-02-28T00:03:32;19.20;;;10.80;;
76167;SDS011;64927;48.214;16.378;2023-02-28T00:06:00;18.45;;;11.15;;
76167;SDS011;64927;48.214;16.378;2023-02-28T00:08:27;17.30;;;10.68;;
76167;SDS011;64927;48.214;16.378;2023-02-28T00:10:53;18.60;;;10.52;;
76167;SDS011;64927;48.214;16.378;2023-02-28T00:13:19;18.85;;;11.07;;
76167;SDS011;64927;48.214;16.378;2023-02-28T00:15:46;17.83;;;11.18;;
76167;SDS011;64927;48.214;16.378;2023-02-28T00:18:12;23.25;;;12.02;;
76167;SDS011;64927;48.214;16.378;2023-02-28T00:20:38;23.15;;;12.38;;
76167;SDS011;64927;48.214;16.378;2023-02-28T00:23:04;21.63;;;12.48;;
76167;SDS011;64927;48.214;16.378;2023-02-28T00:25:29;21.63;;;12.73;;
76167;SDS011;64927;48.214;16.378;2023-02-28T00:27:55;20.70;;;11.82;;
76167;SDS011;64927;48.214;16.378;2023-02-28T00:30:23;20.98;;;11.63;;
76167;SDS011;64927;48.214;16.378;2023-02-28T00:32:49;21.50;;;12.25;;
76167;SDS011;64927;48.214;16.378;2023-02-28T00:35:16;22.60;;;11.88;;
76167;SDS011;64927;48.214;16.378;2023-02-28T00:37:42;22.42;;;11.98;;
76167;SDS011;64927;48.214;16.378;2023-02-28T00:40:08;19.65;;;10.85;;
76167;SDS011;64927;48.214;16.378;2023-02-28T00:42:36;18.67;;;11.18;;
76167;SDS011;64927;48.214;16.378;2023-02-28T00:45:02;23.52;;;12.30;;
76167;SDS011;64927;48.214;16.378;2023-02-28T00:47:29;20.08;;;11.10;;
76167;SDS011;64927;48.214;16.378;2023-02-28T00:49:55;19.77;;;11.63;;
76167;SDS011;64927;48.214;16.378;2023-02-28T00:52:21;20.23;;;11.48;;
76167;SDS011;64927;48.214;16.378;2023-02-28T00:54:49;20.30;;;11.65;;
76167;SDS011;64927;48.214;16.378;2023-02-28T00:57:15;21.40;;;12.63;;
76167;SDS011;64927;48.214;16.378;2023-02-28T00:59:40;18.98;;;11.80;;
76167;SDS011;64927;48.214;16.378;2023-02-28T01:02:06;21.05;;;12.65;;
76167;SDS011;64927;48.214;16.378;2023-02-28T01:04:32;19.75;;;11.55;;
76167;SDS011;64927;48.214;16.378;2023-02-28T01:06:57;19.27;;;12.02;;
76167;SDS011;64927;48.214;16.378;2023-02-28T01:09:23;19.00;;;12.38;;
76167;SDS011;64927;48.214;16.378;2023-02-28T01:11:49;23.08;;;11.80;;
76167;SDS011;64927;48.214;16.378;2023-02-28T01:14:15;18.42;;;11.77;;
76167;SDS011;64927;48.214;16.378;2023-02-28T01:16:45;22.88;;;12.38;;
76167;SDS011;64927;48.214;16.378;2023-02-28T01:19:11;22.77;;;11.95;;
76167;SDS011;64927;48.214;16.378;2023-02-28T01:21:39;22.02;;;12.38;;
76167;SDS011;64927;48.214;16.378;2023-02-28T01:24:04;21.27;;;12.68;;
76167;SDS011;64927;48.214;16.378;2023-02-28T01:26:30;18.77;;;12.02;;
76167;SDS011;64927;48.214;16.378;2023-02-28T01:28:57;18.63;;;11.88;;
76167;SDS011;64927;48.214;16.378;2023-02-28T01:31:23;18.05;;;11.50;;
76167;SDS011;64927;48.214;16.378;2023-02-28T01:33:49;24.00;;;12.77;;
76167;SDS011;64927;48.214;16.378;2023-02-28T01:36:19;19.67;;;12.30;;
76167;SDS011;64927;48.214;16.378;2023-02-28T01:38:47;18.15;;;11.23;;
76167;SDS011;64927;48.214;16.378;2023-02-28T01:41:17;17.67;;;11.90;;
76167;SDS011;64927;48.214;16.378;2023-02-28T01:46:13;18.52;;;11.95;;
76167;SDS011;64927;48.214;16.378;2023-02-28T01:48:42;24.55;;;12.73;;
76167;SDS011;64927;48.214;16.378;2023-02-28T01:51:15;19.52;;;12.18;;
76167;SDS011;64927;48.214;16.378;2023-02-28T01:53:48;17.42;;;10.88;;
76167;SDS011;64927;48.214;16.378;2023-02-28T01:56:21;18.30;;;12.27;;
76167;SDS011;64927;48.214;16.378;2023-02-28T01:58:50;20.67;;;12.45;;
76167;SDS011;64927;48.214;16.378;2023-02-28T02:01:20;18.08;;;11.32;;
76167;SDS011;64927;48.214;16.378;2023-02-28T02:03:48;20.63;;;12.63;;
76167;SDS011;64927;48.214;16.378;2023-02-28T02:06:25;19.05;;;12.05;;
76167;SDS011;64927;48.214;16.378;2023-02-28T02:08:54;21.15;;;13.15;;
76167;SDS011;64927;48.214;16.378;2023-02-28T02:11:20;19.08;;;11.70;;
76167;SDS011;64927;48.214;16.378;2023-02-28T02:16:49;19.92;;;12.82;;
76167;SDS011;64927;48.214;16.378;2023-02-28T02:22:36;19.15;;;12.63;;
76167;SDS011;64927;48.214;16.378;2023-02-28T02:25:34;19.67;;;12.43;;
76167;SDS011;64927;48.214;16.378;2023-02-28T02:36:24;20.13;;;12.20;;
76167;SDS011;64927;48.214;16.378;2023-02-28T02:39:38;20.98;;;11.73;;
76167;SDS011;64927;48.214;16.378;2023-02-28T02:42:31;22.67;;;12.15;;
76167;SDS011;64927;48.214;16.378;2023-02-28T02:45:02;19.95;;;13.13;;
76167;SDS011;64927;48.214;16.378;2023-02-28T02:47:35;19.50;;;13.43;;
76167;SDS011;64927;48.214;16.378;2023-02-28T02:50:07;22.10;;;13.10;;
76167;SDS011;64927;48.214;16.378;2023-02-28T02:52:39;20.90;;;12.90;;
76167;SDS011;64927;48.214;16.378;2023-02-28T02:55:09;20.52;;;12.20;;
76167;SDS011;64927;48.214;16.378;2023-02-28T02:57:47;20.98;;;12.85;;
76167;SDS011;64927;48.214;16.378;2023-02-28T03:00:32;20.70;;;12.70;;
76167;SDS011;64927;48.214;16.378;2023-02-28T03:03:02;21.27;;;12.63;;
76167;SDS011;64927;48.214;16.378;2023-02-28T03:05:33;26.40;;;13.15;;
76167;SDS011;64927;48.214;16.378;2023-02-28T03:08:09;20.55;;;12.95;;
76167;SDS011;64927;48.214;16.378;2023-02-28T03:10:39;21.55;;;12.57;;
76167;SDS011;64927;48.214;16.378;2023-02-28T03:23:50;20.05;;;12.63;;
76167;SDS011;64927;48.214;16.378;2023-02-28T03:26:36;21.35;;;13.05;;
76167;SDS011;64927;48.214;16.378;2023-02-28T03:31:41;21.58;;;12.75;;
76167;SDS011;64927;48.214;16.378;2023-02-28T03:34:45;20.52;;;12.27;;
76167;SDS011;64927;48.214;16.378;2023-02-28T03:37:19;20.13;;;13.07;;
76167;SDS011;64927;48.214;16.378;2023-02-28T03:39:53;23.92;;;13.30;;
76167;SDS011;64927;48.214;16.378;2023-02-28T03:42:27;20.17;;;12.43;;
76167;SDS011;64927;48.214;16.378;2023-02-28T03:44:57;20.73;;;12.98;;
76167;SDS011;64927;48.214;16.378;2023-02-28T03:47:36;20.50;;;11.85;;
76167;SDS011;64927;48.214;16.378;2023-02-28T03:50:13;23.15;;;13.18;;
76167;SDS011;64927;48.214;16.378;2023-02-28T03:53:00;22.42;;;12.88;;
76167;SDS011;64927;48.214;16.378;2023-02-28T03:55:33;21.10;;;12.95;;
76167;SDS011;64927;48.214;16.378;2023-02-28T04:01:04;25.30;;;13.95;;
76167;SDS011;64927;48.214;16.378;2023-02-28T04:03:39;21.17;;;12.65;;
76167;SDS011;64927;48.214;16.378;2023-02-28T04:06:08;19.77;;;11.52;;
76167;SDS011;64927;48.214;16.378;2023-02-28T04:11:07;23.03;;;11.80;;
76167;SDS011;64927;48.214;16.378;2023-02-28T04:13:41;19.15;;;12.52;;
76167;SDS011;64927;48.214;16.378;2023-02-28T04:16:07;25.50;;;12.85;;
76167;SDS011;64927;48.214;16.378;2023-02-28T04:18:37;19.05;;;12.15;;
76167;SDS011;64927;48.214;16.378;2023-02-28T04:21:08;20.75;;;12.13;;
76167;SDS011;64927;48.214;16.378;2023-02-28T04:23:34;20.15;;;12.48;;
76167;SDS011;64927;48.214;16.378;2023-02-28T04:26:02;20.77;;;11.63;;
76167;SDS011;64927;48.214;16.378;2023-02-28T04:28:29;22.20;;;12.52;;
76167;SDS011;64927;48.214;16.378;2023-02-28T04:30:55;18.90;;;11.30;;
76167;SDS011;64927;48.214;16.378;2023-02-28T04:33:21;18.48;;;11.98;;
76167;SDS011;64927;48.214;16.378;2023-02-28T04:35:47;18.52;;;11.95;;
76167;SDS011;64927;48.214;16.378;2023-02-28T04:38:13;20.35;;;11.50;;
76167;SDS011;64927;48.214;16.378;2023-02-28T04:40:38;21.52;;;12.88;;
76167;SDS011;64927;48.214;16.378;2023-02-28T04:43:04;18.58;;;11.52;;
76167;SDS011;64927;48.214;16.378;2023-02-28T04:45:30;21.25;;;14.23;;
76167;SDS011;64927;48.214;16.378;2023-02-28T04:47:57;23.63;;;13.27;;
76167;SDS011;64927;48.214;16.378;2023-02-28T04:50:23;20.70;;;12.10;;
76167;SDS011;64927;48.214;16.378;2023-02-28T04:52:49;17.17;;;11.45;;
76167;SDS011;64927;48.214;16.378;2023-02-28T04:55:14;22.77;;;12.43;;
76167;SDS011;64927;48.214;16.378;2023-02-28T04:57:40;19.52;;;12.32;;
76167;SDS011;64927;48.214;16.378;2023-02-28T05:00:08;21.65;;;12.05;;
76167;SDS011;64927;48.214;16.378;2023-02-28T05:02:36;26.10;;;11.93;;
76167;SDS011;64927;48.214;16.378;2023-02-28T05:05:05;17.45;;;11.18;;
76167;SDS011;64927;48.214;16.378;2023-02-28T05:07:30;20.00;;;11.90;;
76167;SDS011;64927;48.214;16.378;2023-02-28T05:09:56;25.90;;;12.48;;
76167;SDS011;64927;48.214;16.378;2023-02-28T05:12:22;21.60;;;11.77;;
76167;SDS011;64927;48.214;16.378;2023-02-28T05:14:48;20.58;;;12.55;;
76167;SDS011;64927;48.214;16.378;2023-02-28T05:17:13;23.65;;;13.65;;
76167;SDS011;64927;48.214;16.378;2023-02-28T05:19:39;24.17;;;12.65;;
76167;SDS011;64927;48.214;16.378;2023-02-28T05:22:04;19.73;;;12.68;;
76167;SDS011;64927;48.214;16.378;2023-02-28T05:24:37;23.63;;;13.02;;
76167;SDS011;64927;48.214;16.378;2023-02-28T05:27:03;23.13;;;14.00;;
76167;SDS011;64927;48.214;16.378;2023-02-28T05:29:28;28.27;;;13.88;;
76167;SDS011;64927;48.214;16.378;2023-02-28T05:31:54;20.23;;;13.43;;
76167;SDS011;64927;48.214;16.378;2023-02-28T05:34:20;23.60;;;13.80;;
76167;SDS011;64927;48.214;16.378;2023-02-28T05:36:46;24.05;;;12.80;;
76167;SDS011;64927;48.214;16.378;2023-02-28T05:39:11;19.83;;;11.90;;
76167;SDS011;64927;48.214;16.378;2023-02-28T05:41:38;24.02;;;13.77;;
76167;SDS011;64927;48.214;16.378;2023-02-28T05:44:05;22.02;;;12.95;;
76167;SDS011;64927;48.214;16.378;2023-02-28T05:46:30;19.00;;;11.80;;
76167;SDS011;64927;48.214;16.378;2023-02-28T05:48:56;22.98;;;13.98;;
76167;SDS011;64927;48.214;16.378;2023-02-28T05:51:25;25.67;;;14.50;;
76167;SDS011;64927;48.214;16.378;2023-02-28T05:53:50;24.73;;;14.95;;
76167;SDS011;64927;48.214;16.378;2023-02-28T05:56:19;25.33;;;14.32;;
76167;SDS011;64927;48.214;16.378;2023-02-28T05:58:44;24.10;;;14.13;;
76167;SDS011;64927;48.214;16.378;2023-02-28T06:01:24;25.70;;;14.88;;
76167;SDS011;64927;48.214;16.378;2023-02-28T06:04:02;26.50;;;14.50;;
76167;SDS011;64927;48.214;16.378;2023-02-28T06:06:29;23.95;;;13.85;;
76167;SDS011;64927;48.214;16.378;2023-02-28T06:08:58;23.15;;;14.85;;
76167;SDS011;64927;48.214;16.378;2023-02-28T06:11:23;26.95;;;14.02;;
76167;SDS011;64927;48.214;16.378;2023-02-28T06:13:55;28.27;;;15.07;;
76167;SDS011;64927;48.214;16.378;2023-02-28T06:16:22;23.83;;;14.35;;
76167;SDS011;64927;48.214;16.378;2023-02-28T06:18:48;22.75;;;13.38;;
76167;SDS011;64927;48.214;16.378;2023-02-28T06:21:14;26.20;;;15.98;;
76167;SDS011;64927;48.214;16.378;2023-02-28T06:23:42;24.60;;;13.50;;
76167;SDS011;64927;48.214;16.378;2023-02-28T06:26:09;23.05;;;13.73;;
76167;SDS011;64927;48.214;16.378;2023-02-28T06:28:35;21.33;;;13.52;;
76167;SDS011;64927;48.214;16.378;2023-02-28T06:31:08;28.20;;;13.77;;
76167;SDS011;64927;48.214;16.378;2023-02-28T06:33:36;23.48;;;15.70;;
76167;SDS011;64927;48.214;16.378;2023-02-28T06:36:02;21.33;;;13.50;;
76167;SDS011;64927;48.214;16.378;2023-02-28T06:38:29;23.40;;;12.95;;
76167;SDS011;64927;48.214;16.378;2023-02-28T06:40:56;27.00;;;14.27;;
76167;SDS011;64927;48.214;16.378;2023-02-28T06:43:26;26.35;;;13.93;;
76167;SDS011;64927;48.214;16.378;2023-02-28T06:45:54;22.20;;;13.43;;
76167;SDS011;64927;48.214;16.378;2023-02-28T06:48:21;25.77;;;14.82;;
76167;SDS011;64927;48.214;16.378;2023-02-28T06:50:47;22.10;;;14.32;;
76167;SDS011;64927;48.214;16.378;2023-02-28T06:53:13;24.65;;;14.98;;
76167;SDS011;64927;48.214;16.378;2023-02-28T06:55:39;27.23;;;14.88;;
76167;SDS011;64927;48.214;16.378;2023-02-28T06:58:05;25.10;;;14.27;;
76167;SDS011;64927;48.214;16.378;2023-02-28T07:00:42;25.58;;;15.27;;
76167;SDS011;64927;48.214;16.378;2023-02-28T07:03:09;19.90;;;13.55;;
76167;SDS011;64927;48.214;16.378;2023-02-28T07:05:36;23.48;;;15.32;;
76167;SDS011;64927;48.214;16.378;2023-02-28T07:08:02;25.27;;;15.02;;
76167;SDS011;64927;48.214;16.378;2023-02-28T07:10:29;25.42;;;14.55;;
76167;SDS011;64927;48.214;16.378;2023-02-28T07:12:55;25.20;;;14.05;;
76167;SDS011;64927;48.214;16.378;2023-02-28T07:15:28;21.33;;;13.20;;
76167;SDS011;64927;48.214;16.378;2023-02-28T07:17:54;26.73;;;14.65;;
76167;SDS011;64927;48.214;16.378;2023-02-28T07:20:21;24.90;;;14.50;;
76167;SDS011;64927;48.214;16.378;2023-02-28T07:22:48;21.92;;;13.93;;
76167;SDS011;64927;48.214;16.378;2023-02-28T07:25:20;21.10;;;13.40;;
76167;SDS011;64927;48.214;16.378;2023-02-28T07:27:50;22.45;;;14.40;;
76167;SDS011;64927;48.214;16.378;2023-02-28T07:30:16;29.33;;;16.20;;
76167;SDS011;64927;48.214;16.378;2023-02-28T07:32:44;21.75;;;14.43;;
76167;SDS011;64927;48.214;16.378;2023-02-28T07:35:10;26.27;;;15.95;;
76167;SDS011;64927;48.214;16.378;2023-02-28T07:37:36;25.20;;;15.50;;
76167;SDS011;64927;48.214;16.378;2023-02-28T07:40:03;21.70;;;14.85;;
76167;SDS011;64927;48.214;16.378;2023-02-28T07:42:33;29.60;;;15.48;;
76167;SDS011;64927;48.214;16.378;2023-02-28T07:45:03;25.48;;;15.68;;
76167;SDS011;64927;48.214;16.378;2023-02-28T07:47:29;20.65;;;13.98;;
76167;SDS011;64927;48.214;16.378;2023-02-28T07:49:56;22.58;;;15.55;;
76167;SDS011;64927;48.214;16.378;2023-02-28T07:52:22;26.92;;;15.35;;
76167;SDS011;64927;48.214;16.378;2023-02-28T07:54:49;26.38;;;15.80;;
76167;SDS011;64927;48.214;16.378;2023-02-28T07:57:18;28.05;;;16.30;;
76167;SDS011;64927;48.214;16.378;2023-02-28T07:59:46;25.42;;;15.70;;
76167;SDS011;64927;48.214;16.378;2023-02-28T08:02:15;24.63;;;15.15;;
76167;SDS011;64927;48.214;16.378;2023-02-28T08:04:42;27.65;;;16.17;;
76167;SDS011;64927;48.214;16.378;2023-02-28T08:07:11;30.77;;;16.88;;
76167;SDS011;64927;48.214;16.378;2023-02-28T08:09:38;34.90;;;17.30;;
76167;SDS011;64927;48.214;16.378;2023-02-28T08:12:04;25.30;;;17.05;;
76167;SDS011;64927;48.214;16.378;2023-02-28T08:14:30;29.30;;;16.75;;
76167;SDS011;64927;48.214;16.378;2023-02-28T08:16:56;25.52;;;16.00;;
76167;SDS011;64927;48.214;16.378;2023-02-28T08:19:22;23.33;;;15.60;;
76167;SDS011;64927;48.214;16.378;2023-02-28T08:21:48;27.85;;;16.50;;
76167;SDS011;64927;48.214;16.378;2023-02-28T08:24:13;24.67;;;15.48;;
76167;SDS011;64927;48.214;16.378;2023-02-28T08:26:41;28.15;;;15.98;;
76167;SDS011;64927;48.214;16.378;2023-02-28T08:29:07;27.27;;;16.15;;
76167;SDS011;64927;48.214;16.378;2023-02-28T08:31:32;29.08;;;17.58;;
76167;SDS011;64927;48.214;16.378;2023-02-28T08:34:00;32.22;;;16.98;;
76167;SDS011;64927;48.214;16.378;2023-02-28T08:36:33;28.88;;;18.00;;
76167;SDS011;64927;48.214;16.378;2023-02-28T08:39:01;28.33;;;15.95;;
76167;SDS011;64927;48.214;16.378;2023-02-28T08:41:28;29.15;;;16.83;;
76167;SDS011;64927;48.214;16.378;2023-02-28T08:43:53;25.05;;;16.23;;
76167;SDS011;64927;48.214;16.378;2023-02-28T08:46:20;26.30;;;17.02;;
76167;SDS011;64927;48.214;16.378;2023-02-28T08:48:45;26.38;;;15.80;;
76167;SDS011;64927;48.214;16.378;2023-02-28T08:51:13;28.27;;;17.90;;
76167;SDS011;64927;48.214;16.378;2023-02-28T08:53:43;27.30;;;17.17;;
76167;SDS011;64927;48.214;16.378;2023-02-28T08:56:10;26.73;;;17.02;;
76167;SDS011;64927;48.214;16.378;2023-02-28T08:58:37;28.85;;;18.17;;
76167;SDS011;64927;48.214;16.378;2023-02-28T09:01:11;30.95;;;17.75;;
76167;SDS011;64927;48.214;16.378;2023-02-28T09:03:38;25.13;;;16.63;;
76167;SDS011;64927;48.214;16.378;2023-02-28T09:06:05;26.63;;;16.58;;
76167;SDS011;64927;48.214;16.378;2023-02-28T09:08:31;30.48;;;18.25;;
76167;SDS011;64927;48.214;16.378;2023-02-28T09:10:57;31.83;;;16.25;;
76167;SDS011;64927;48.214;16.378;2023-02-28T09:13:25;26.27;;;17.13;;
76167;SDS011;64927;48.214;16.378;2023-02-28T09:15:53;27.50;;;18.75;;
76167;SDS011;64927;48.214;16.378;2023-02-28T09:18:19;24.48;;;15.40;;
76167;SDS011;64927;48.214;16.378;2023-02-28T09:20:45;28.23;;;15.77;;
76167;SDS011;64927;48.214;16.378;2023-02-28T09:23:12;24.90;;;16.05;;
76167;SDS011;64927;48.214;16.378;2023-02-28T09:25:52;24.90;;;16.35;;
76167;SDS011;64927;48.214;16.378;2023-02-28T09:28:19;23.75;;;15.13;;
76167;SDS011;64927;48.214;16.378;2023-02-28T09:30:46;24.27;;;16.00;;
76167;SDS011;64927;48.214;16.378;2023-02-28T09:33:17;25.10;;;14.80;;
76167;SDS011;64927;48.214;16.378;2023-02-28T09:35:48;23.67;;;13.88;;
76167;SDS011;64927;48.214;16.378;2023-02-28T09:38:14;21.75;;;14.07;;
76167;SDS011;64927;48.214;16.378;2023-02-28T09:40:52;20.42;;;14.27;;
76167;SDS011;64927;48.214;16.378;2023-02-28T09:43:22;18.20;;;12.65;;
76167;SDS011;64927;48.214;16.378;2023-02-28T09:48:33;22.30;;;13.88;;
76167;SDS011;64927;48.214;16.378;2023-02-28T09:53:55;22.80;;;13.85;;
76167;SDS011;64927;48.214;16.378;2023-02-28T09:56:22;28.60;;;13.75;;
76167;SDS011;64927;48.214;16.378;2023-02-28T10:04:40;24.02;;;15.95;;
76167;SDS011;64927;48.214;16.378;2023-02-28T10:07:42;28.38;;;16.80;;
76167;SDS011;64927;48.214;16.378;2023-02-28T10:12:53;25.92;;;16.73;;
76167;SDS011;64927;48.214;16.378;2023-02-28T10:15:22;27.45;;;15.95;;
76167;SDS011;64927;48.214;16.378;2023-02-28T10:17:51;22.52;;;15.60;;
76167;SDS011;64927;48.214;16.378;2023-02-28T10:20:24;24.95;;;15.75;;
76167;SDS011;64927;48.214;16.378;2023-02-28T10:25:54;23.63;;;14.55;;
76167;SDS011;64927;48.214;16.378;2023-02-28T10:28:43;25.52;;;16.50;;
76167;SDS011;64927;48.214;16.378;2023-02-28T10:31:20;26.10;;;14.65;;
76167;SDS011;64927;48.214;16.378;2023-02-28T10:33:46;24.10;;;15.48;;
76167;SDS011;64927;48.214;16.378;2023-02-28T10:36:16;24.05;;;15.38;;
76167;SDS011;64927;48.214;16.378;2023-02-28T10:38:44;22.80;;;15.75;;
76167;SDS011;64927;48.214;16.378;2023-02-28T10:41:30;24.38;;;16.17;;
76167;SDS011;64927;48.214;16.378;2023-02-28T10:44:14;26.08;;;17.70;;
76167;SDS011;64927;48.214;16.378;2023-02-28T10:46:45;26.75;;;17.73;;
76167;SDS011;64927;48.214;16.378;2023-02-28T10:49:15;25.38;;;18.10;;
76167;SDS011;64927;48.214;16.378;2023-02-28T10:51:46;28.17;;;17.42;;
76167;SDS011;64927;48.214;16.378;2023-02-28T10:54:22;23.40;;;16.90;;
76167;SDS011;64927;48.214;16.378;2023-02-28T10:57:20;24.63;;;16.00;;
76167;SDS011;64927;48.214;16.378;2023-02-28T10:59:52;20.55;;;15.88;;
76167;SDS011;64927;48.214;16.378;2023-02-28T11:02:35;25.65;;;16.20;;
76167;SDS011;64927;48.214;16.378;2023-02-28T11:05:22;21.52;;;16.13;;
76167;SDS011;64927;48.214;16.378;2023-02-28T11:07:56;22.48;;;16.63;;
76167;SDS011;64927;48.214;16.378;2023-02-28T11:10:29;25.13;;;17.73;;
76167;SDS011;64927;48.214;16.378;2023-02-28T11:12:59;24.85;;;16.75;;
76167;SDS011;64927;48.214;16.378;2023-02-28T11:20:51;24.50;;;16.23;;
76167;SDS011;64927;48.214;16.378;2023-02-28T11:23:19;21.67;;;16.42;;
76167;SDS011;64927;48.214;16.378;2023-02-28T11:25:52;25.73;;;17.90;;
76167;SDS011;64927;48.214;16.378;2023-02-28T11:28:34;23.35;;;17.08;;
76167;SDS011;64927;48.214;16.378;2023-02-28T11:36:28;25.95;;;17.73;;
76167;SDS011;64927;48.214;16.378;2023-02-28T11:38:58;21.75;;;16.05;;
76167;SDS011;64927;48.214;16.378;2023-02-28T11:52:33;19.77;;;13.35;;
76167;SDS011;64927;48.214;16.378;2023-02-28T12:01:26;22.55;;;15.10;;
76167;SDS011;64927;48.214;16.378;2023-02-28T12:29:38;20.42;;;14.00;;
76167;SDS011;64927;48.214;16.378;2023-02-28T12:32:06;19.05;;;12.68;;
76167;SDS011;64927;48.214;16.378;2023-02-28T12:34:39;20.23;;;12.90;;
76167;SDS011;64927;48.214;16.378;2023-02-28T12:37:24;16.67;;;11.75;;
76167;SDS011;64927;48.214;16.378;2023-02-28T12:40:02;21.77;;;11.70;;
76167;SDS011;64927;48.214;16.378;2023-02-28T12:43:32;23.95;;;11.88;;
76167;SDS011;64927;48.214;16.378;2023-02-28T12:52:23;11.63;;;8.57;;
76167;SDS011;64927;48.214;16.378;2023-02-28T12:58:00;17.00;;;11.13;;
76167;SDS011;64927;48.214;16.378;2023-02-28T13:00:43;19.25;;;11.48;;
76167;SDS011;64927;48.214;16.378;2023-02-28T13:09:09;20.50;;;10.70;;
76167;SDS011;64927;48.214;16.378;2023-02-28T13:11:48;16.05;;;10.88;;
76167;SDS011;64927;48.214;16.378;2023-02-28T13:14:19;14.77;;;10.27;;
76167;SDS011;64927;48.214;16.378;2023-02-28T13:19:35;16.40;;;10.52;;
76167;SDS011;64927;48.214;16.378;2023-02-28T13:22:02;15.30;;;9.07;;
76167;SDS011;64927;48.214;16.378;2023-02-28T13:24:43;15.75;;;9.98;;
76167;SDS011;64927;48.214;16.378;2023-02-28T13:29:58;13.23;;;9.32;;
76167;SDS011;64927;48.214;16.378;2023-02-28T13:32:31;16.95;;;9.80;;
76167;SDS011;64927;48.214;16.378;2023-02-28T13:39:51;14.82;;;10.05;;
76167;SDS011;64927;48.214;16.378;2023-02-28T13:47:27;13.07;;;9.70;;
76167;SDS011;64927;48.214;16.378;2023-02-28T13:50:07;15.55;;;10.15;;
76167;SDS011;64927;48.214;16.378;2023-02-28T13:52:44;16.02;;;10.57;;
76167;SDS011;64927;48.214;16.378;2023-02-28T14:03:17;14.05;;;10.02;;
76167;SDS011;64927;48.214;16.378;2023-02-28T14:09:01;15.88;;;10.60;;
76167;SDS011;64927;48.214;16.378;2023-02-28T14:11:48;14.60;;;10.00;;
76167;SDS011;64927;48.214;16.378;2023-02-28T14:17:01;16.13;;;11.60;;
76167;SDS011;64927;48.214;16.378;2023-02-28T14:19:31;13.27;;;10.95;;
76167;SDS011;64927;48.214;16.378;2023-02-28T14:27:44;13.40;;;10.73;;
76167;SDS011;64927;48.214;16.378;2023-02-28T14:36:41;18.30;;;11.90;;
76167;SDS011;64927;48.214;16.378;2023-02-28T14:39:19;17.90;;;12.43;;
76167;SDS011;64927;48.214;16.378;2023-02-28T14:41:50;16.52;;;11.57;;
76167;SDS011;64927;48.214;16.378;2023-02-28T14:46:56;17.55;;;11.52;;
76167;SDS011;64927;48.214;16.378;2023-02-28T14:49:34;16.33;;;11.77;;
76167;SDS011;64927;48.214;16.378;2023-02-28T14:54:37;19.10;;;12.57;;
76167;SDS011;64927;48.214;16.378;2023-02-28T14:57:04;15.38;;;11.52;;
76167;SDS011;64927;48.214;16.378;2023-02-28T14:59:32;18.55;;;11.90;;
76167;SDS011;64927;48.214;16.378;2023-02-28T15:02:19;21.70;;;12.23;;
76167;SDS011;64927;48.214;16.378;2023-02-28T15:05:00;17.67;;;12.25;;
76167;SDS011;64927;48.214;16.378;2023-02-28T15:07:47;17.50;;;11.35;;
76167;SDS011;64927;48.214;16.378;2023-02-28T15:10:18;17.63;;;11.85;;
76167;SDS011;64927;48.214;16.378;2023-02-28T15:15:58;18.20;;;12.57;;
76167;SDS011;64927;48.214;16.378;2023-02-28T15:24:03;14.75;;;10.52;;
76167;SDS011;64927;48.214;16.378;2023-02-28T15:26:35;16.52;;;11.60;;
76167;SDS011;64927;48.214;16.378;2023-02-28T15:29:20;18.98;;;12.15;;
76167;SDS011;64927;48.214;16.378;2023-02-28T15:31:48;21.58;;;13.07;;
76167;SDS011;64927;48.214;16.378;2023-02-28T15:34:20;16.58;;;11.23;;
76167;SDS011;64927;48.214;16.378;2023-02-28T15:36:51;16.98;;;12.00;;
76167;SDS011;64927;48.214;16.378;2023-02-28T15:39:18;16.75;;;12.07;;
76167;SDS011;64927;48.214;16.378;2023-02-28T15:41:49;17.48;;;10.93;;
76167;SDS011;64927;48.214;16.378;2023-02-28T15:46:59;18.65;;;12.05;;
76167;SDS011;64927;48.214;16.378;2023-02-28T15:49:27;15.05;;;11.07;;
76167;SDS011;64927;48.214;16.378;2023-02-28T15:51:58;18.58;;;11.55;;
76167;SDS011;64927;48.214;16.378;2023-02-28T15:54:29;17.33;;;11.52;;
76167;SDS011;64927;48.214;16.378;2023-02-28T15:57:10;18.08;;;11.85;;
76167;SDS011;64927;48.214;16.378;2023-02-28T15:59:48;14.93;;;11.00;;
76167;SDS011;64927;48.214;16.378;2023-02-28T16:02:19;16.65;;;10.60;;
76167;SDS011;64927;48.214;16.378;2023-02-28T16:07:31;17.77;;;12.65;;
76167;SDS011;64927;48.214;16.378;2023-02-28T16:09:58;18.40;;;12.38;;
76167;SDS011;64927;48.214;16.378;2023-02-28T16:12:25;18.48;;;12.38;;
76167;SDS011;64927;48.214;16.378;2023-02-28T16:14:53;20.48;;;12.30;;
76167;SDS011;64927;48.214;16.378;2023-02-28T16:17:22;18.27;;;13.85;;
76167;SDS011;64927;48.214;16.378;2023-02-28T16:19:50;22.35;;;12.50;;
76167;SDS011;64927;48.214;16.378;2023-02-28T16:22:16;16.55;;;13.05;;
76167;SDS011;64927;48.214;16.378;2023-02-28T16:24:42;18.95;;;12.73;;
76167;SDS011;64927;48.214;16.378;2023-02-28T16:27:11;18.00;;;12.68;;
76167;SDS011;64927;48.214;16.378;2023-02-28T16:29:46;20.23;;;11.88;;
76167;SDS011;64927;48.214;16.378;2023-02-28T16:32:14;19.05;;;12.82;;
76167;SDS011;64927;48.214;16.378;2023-02-28T16:34:41;18.67;;;12.82;;
76167;SDS011;64927;48.214;16.378;2023-02-28T16:37:11;16.85;;;11.95;;
76167;SDS011;64927;48.214;16.378;2023-02-28T16:39:39;19.40;;;12.50;;
76167;SDS011;64927;48.214;16.378;2023-02-28T16:42:07;19.70;;;13.40;;
76167;SDS011;64927;48.214;16.378;2023-02-28T16:44:38;16.17;;;12.70;;
76167;SDS011;64927;48.214;16.378;2023-02-28T16:47:05;18.13;;;12.93;;
76167;SDS011;64927;48.214;16.378;2023-02-28T16:49:31;15.63;;;11.63;;
76167;SDS011;64927;48.214;16.378;2023-02-28T16:51:56;17.55;;;12.38;;
76167;SDS011;64927;48.214;16.378;2023-02-28T16:54:22;17.95;;;12.88;;
76167;SDS011;64927;48.214;16.378;2023-02-28T16:56:48;21.05;;;12.85;;
76167;SDS011;64927;48.214;16.378;2023-02-28T16:59:15;21.10;;;13.18;;
76167;SDS011;64927;48.214;16.378;2023-02-28T17:01:50;19.63;;;13.27;;
76167;SDS011;64927;48.214;16.378;2023-02-28T17:04:19;23.40;;;12.73;;
76167;SDS011;64927;48.214;16.378;2023-02-28T17:06:45;21.02;;;13.18;;
76167;SDS011;64927;48.214;16.378;2023-02-28T17:09:16;20.73;;;13.43;;
76167;SDS011;64927;48.214;16.378;2023-02-28T17:11:43;22.58;;;13.95;;
76167;SDS011;64927;48.214;16.378;2023-02-28T17:14:09;19.38;;;13.85;;
76167;SDS011;64927;48.214;16.378;2023-02-28T17:16:35;22.02;;;13.38;;
76167;SDS011;64927;48.214;16.378;2023-02-28T17:19:06;21.40;;;14.25;;
76167;SDS011;64927;48.214;16.378;2023-02-28T17:21:36;23.58;;;14.18;;
76167;SDS011;64927;48.214;16.378;2023-02-28T17:24:02;21.60;;;13.95;;
76167;SDS011;64927;48.214;16.378;2023-02-28T17:26:28;18.95;;;13.18;;
76167;SDS011;64927;48.214;16.378;2023-02-28T17:28:57;18.60;;;13.68;;